Time;durP1;ratioP1;P1;durP2;ratioP2;P2;SDS_P1;SDS_P2;PMS_P1;PMS_P2;Temp;Humidity;BMP_temperature;BMP_pressure;BME280_temperature;BME280_humidity;BME280_pressure;Samples;Min_cycle;Max_cycle;Signal;HPM_P1;HPM_P2
2023/04/12 00:01:51;;;;;;;8.13;2.63;;;7.90;99.90;;;;;;5035583;28;20094;-63
2023/04/12 00:04:17;;;;;;;7.60;2.75;;;7.90;99.90;;;;;;5052664;28;20044;-63
2023/04/12 00:06:47;;;;;;;10.20;2.97;;;7.90;99.90;;;;;;5034111;28;20037;-64
2023/04/12 00:09:16;;;;;;;8.60;2.45;;;7.90;99.90;;;;;;5035575;28;20441;-63
2023/04/12 00:11:41;;;;;;;10.95;2.90;;;7.90;99.90;;;;;;5018547;28;20124;-63
2023/04/12 00:14:07;;;;;;;8.48;3.65;;;7.90;99.90;;;;;;5034283;28;20129;-63
2023/04/12 00:16:34;;;;;;;5.95;2.38;;;8.00;99.90;;;;;;5034524;28;20068;-63
2023/04/12 00:19:02;;;;;;;7.47;2.45;;;8.00;99.90;;;;;;5035121;28;20080;-63
2023/04/12 00:21:28;;;;;;;6.60;3.03;;;8.00;99.90;;;;;;5033903;28;20037;-63
2023/04/12 00:23:54;;;;;;;5.63;2.05;;;8.00;99.90;;;;;;5035038;28;20049;-63
2023/04/12 00:26:24;;;;;;;7.85;3.03;;;8.00;99.90;;;;;;5034633;28;20041;-63
2023/04/12 00:28:50;;;;;;;8.55;3.35;;;8.10;99.90;;;;;;5019753;28;20038;-63
2023/04/12 00:31:15;;;;;;;7.75;2.53;;;8.10;99.90;;;;;;5014793;28;20044;-63
2023/04/12 00:33:41;;;;;;;7.63;2.95;;;8.10;99.90;;;;;;5014927;28;20096;-63
2023/04/12 00:36:07;;;;;;;10.48;2.85;;;8.20;99.90;;;;;;5014413;28;20045;-63
2023/04/12 00:38:33;;;;;;;10.75;2.90;;;8.20;99.90;;;;;;5014364;28;20037;-63
2023/04/12 00:40:59;;;;;;;8.55;3.17;;;8.30;99.90;;;;;;5032966;28;20044;-63
2023/04/12 00:43:26;;;;;;;7.68;2.28;;;8.30;99.90;;;;;;5031216;28;20038;-63
2023/04/12 00:45:55;;;;;;;9.32;2.53;;;8.30;99.90;;;;;;5032518;28;20041;-63
2023/04/12 00:48:22;;;;;;;9.57;2.70;;;8.30;99.90;;;;;;4997797;28;20064;-63
2023/04/12 00:50:56;;;;;;;11.70;2.72;;;8.30;99.90;;;;;;5014013;28;20038;-63
2023/04/12 00:53:22;;;;;;;9.40;2.67;;;8.30;99.90;;;;;;5014131;28;20044;-63
2023/04/12 00:55:50;;;;;;;8.68;2.80;;;8.30;99.90;;;;;;5036997;28;20044;-63
2023/04/12 00:58:16;;;;;;;6.07;2.63;;;8.30;99.90;;;;;;5017826;28;20051;-63
2023/04/12 01:00:49;;;;;;;7.18;2.45;;;8.30;99.90;;;;;;5051912;28;20118;-63
2023/04/12 01:03:26;;;;;;;7.28;2.40;;;8.30;99.90;;;;;;5033713;28;20381;-63
2023/04/12 01:06:12;;;;;;;7.00;2.83;;;8.30;99.90;;;;;;5018238;28;20071;-63
2023/04/12 01:08:55;;;;;;;7.38;2.53;;;8.30;99.90;;;;;;5051390;28;20132;-63
2023/04/12 01:11:43;;;;;;;8.88;2.67;;;8.30;99.90;;;;;;5032949;28;20389;-63
2023/04/12 01:14:40;;;;;;;12.68;3.50;;;8.30;99.90;;;;;;5051726;28;20045;-63
2023/04/12 01:17:13;;;;;;;9.27;3.15;;;8.30;99.90;;;;;;5031498;28;20057;-63
2023/04/12 01:20:15;;;;;;;8.07;2.63;;;8.30;99.90;;;;;;5033851;28;20052;-64
2023/04/12 01:22:45;;;;;;;10.77;3.30;;;8.30;99.90;;;;;;4938053;29;20055;-63
2023/04/12 01:25:22;;;;;;;7.93;2.75;;;8.30;99.90;;;;;;4996967;28;20517;-63
2023/04/12 01:27:55;;;;;;;8.25;2.47;;;8.20;99.90;;;;;;5032018;28;20111;-63
2023/04/12 01:30:23;;;;;;;10.90;2.88;;;8.20;99.90;;;;;;5013801;28;20052;-64
2023/04/12 01:32:50;;;;;;;8.48;3.58;;;8.30;99.90;;;;;;5014683;28;20037;-63
2023/04/12 01:35:20;;;;;;;9.25;3.13;;;8.20;99.90;;;;;;5031757;28;20041;-63
2023/04/12 01:37:46;;;;;;;8.43;3.38;;;8.30;99.90;;;;;;5014557;28;20047;-63
2023/04/12 01:40:12;;;;;;;8.98;2.75;;;8.20;99.90;;;;;;5013701;28;20041;-63
2023/04/12 01:42:38;;;;;;;11.57;4.00;;;8.20;99.90;;;;;;5031547;28;20052;-63
2023/04/12 01:45:05;;;;;;;8.93;2.50;;;8.20;99.90;;;;;;5013353;28;20041;-63
2023/04/12 01:47:32;;;;;;;12.10;4.03;;;8.20;99.90;;;;;;5013581;28;20045;-63
2023/04/12 01:50:10;;;;;;;10.00;3.40;;;8.20;99.90;;;;;;5014136;28;20037;-63
2023/04/12 01:52:42;;;;;;;8.32;2.88;;;8.20;99.90;;;;;;5012871;28;20077;-63
2023/04/12 01:55:11;;;;;;;8.98;2.85;;;8.10;99.90;;;;;;4997940;28;20379;-63
2023/04/12 01:57:37;;;;;;;10.82;3.40;;;8.10;99.90;;;;;;5031306;28;20250;-63
2023/04/12 02:00:06;;;;;;;9.93;2.97;;;8.10;99.90;;;;;;5013195;28;20486;-63
2023/04/12 02:02:35;;;;;;;12.43;3.33;;;8.10;99.90;;;;;;5013425;28;20052;-63
2023/04/12 02:05:02;;;;;;;7.28;2.97;;;8.10;99.90;;;;;;5014118;28;20081;-63
2023/04/12 02:07:28;;;;;;;9.80;2.78;;;8.10;99.90;;;;;;5012427;28;20053;-63
2023/04/12 02:09:53;;;;;;;9.48;3.15;;;8.10;99.90;;;;;;5015854;28;20045;-63
2023/04/12 02:12:21;;;;;;;7.97;3.08;;;8.10;99.90;;;;;;5017455;28;20037;-63
2023/04/12 02:14:50;;;;;;;7.05;3.28;;;8.10;99.90;;;;;;5017013;28;20049;-63
2023/04/12 02:17:16;;;;;;;9.68;2.88;;;8.10;99.90;;;;;;5035179;28;20051;-63
2023/04/12 02:19:42;;;;;;;6.35;2.50;;;8.10;99.90;;;;;;5036261;28;20103;-63
2023/04/12 02:22:08;;;;;;;10.57;2.67;;;8.10;99.90;;;;;;5016799;28;20072;-63
2023/04/12 02:24:33;;;;;;;6.32;2.42;;;8.20;99.90;;;;;;5017096;28;20128;-63
2023/04/12 02:27:00;;;;;;;8.60;2.85;;;8.20;99.90;;;;;;5035304;28;20038;-63
2023/04/12 02:29:26;;;;;;;10.15;3.05;;;8.20;99.90;;;;;;5015931;28;20486;-63
2023/04/12 02:31:52;;;;;;;8.77;2.95;;;8.20;99.90;;;;;;5001081;28;20073;-63
2023/04/12 02:34:18;;;;;;;5.75;2.42;;;8.20;99.90;;;;;;5016231;28;20079;-63
2023/04/12 02:36:47;;;;;;;7.38;2.53;;;8.20;99.90;;;;;;5035020;28;20037;-63
2023/04/12 02:39:13;;;;;;;9.32;3.20;;;8.20;99.90;;;;;;5017341;28;20128;-63
2023/04/12 02:41:39;;;;;;;6.25;2.50;;;8.20;99.90;;;;;;5015839;28;20148;-63
2023/04/12 02:44:04;;;;;;;7.32;2.65;;;8.20;99.90;;;;;;5026468;28;20049;-63
2023/04/12 02:46:30;;;;;;;8.70;2.47;;;8.30;99.90;;;;;;5019867;28;20045;-63
2023/04/12 02:48:56;;;;;;;8.05;2.38;;;8.20;99.90;;;;;;5035777;28;20045;-63
2023/04/12 02:51:21;;;;;;;7.65;2.53;;;8.30;99.90;;;;;;5036395;28;20129;-63
2023/04/12 02:53:47;;;;;;;9.25;2.42;;;8.30;99.90;;;;;;5054457;28;20048;-63
2023/04/12 02:56:13;;;;;;;9.38;2.58;;;8.20;99.90;;;;;;5019534;28;20041;-63
2023/04/12 02:58:39;;;;;;;9.35;3.28;;;8.30;99.90;;;;;;5036088;28;20037;-63
2023/04/12 03:01:06;;;;;;;7.10;2.35;;;8.30;99.90;;;;;;5036775;28;20060;-63
2023/04/12 03:03:33;;;;;;;7.53;2.63;;;8.30;99.90;;;;;;5052563;28;20041;-63
2023/04/12 03:05:58;;;;;;;8.48;2.53;;;8.30;99.90;;;;;;5036830;28;20056;-63
2023/04/12 03:08:24;;;;;;;7.43;2.67;;;8.30;99.90;;;;;;5035811;28;20506;-63
2023/04/12 03:10:50;;;;;;;9.20;2.55;;;8.30;99.90;;;;;;5053715;28;20048;-63
2023/04/12 03:13:16;;;;;;;5.85;2.45;;;8.30;99.90;;;;;;5035752;28;20041;-63
2023/04/12 03:15:44;;;;;;;4.88;2.28;;;8.30;99.90;;;;;;5053968;28;20037;-63
2023/04/12 03:18:10;;;;;;;8.88;2.30;;;8.30;99.90;;;;;;5022646;28;20037;-63
2023/04/12 03:20:38;;;;;;;5.97;2.00;;;8.30;99.90;;;;;;5014704;28;20053;-63
2023/04/12 03:23:04;;;;;;;8.35;2.40;;;8.30;99.90;;;;;;5016467;28;20505;-63
2023/04/12 03:25:30;;;;;;;6.70;2.20;;;8.30;99.90;;;;;;4998648;28;20044;-63
2023/04/12 03:27:55;;;;;;;8.80;2.47;;;8.30;99.90;;;;;;5034021;28;20116;-63
2023/04/12 03:30:21;;;;;;;6.03;1.83;;;8.30;99.90;;;;;;5015587;28;20187;-63
2023/04/12 03:32:47;;;;;;;7.20;2.97;;;8.30;99.90;;;;;;5015781;28;20049;-63
2023/04/12 03:35:12;;;;;;;7.07;2.47;;;8.20;99.90;;;;;;5034039;28;20038;-63
2023/04/12 03:37:40;;;;;;;9.77;2.92;;;8.20;99.90;;;;;;5038646;28;20048;-63
2023/04/12 03:40:06;;;;;;;11.13;2.88;;;8.20;99.90;;;;;;5035898;28;20504;-63
2023/04/12 03:42:32;;;;;;;5.15;2.15;;;8.20;99.90;;;;;;5035185;28;20033;-63
2023/04/12 03:44:58;;;;;;;7.22;2.53;;;8.20;99.90;;;;;;5034902;28;20045;-63
2023/04/12 03:47:23;;;;;;;12.98;3.60;;;8.20;99.90;;;;;;5018599;28;20116;-63
2023/04/12 03:49:49;;;;;;;6.00;2.25;;;8.20;99.90;;;;;;5035793;28;20589;-63
2023/04/12 03:52:15;;;;;;;6.68;2.45;;;8.20;99.90;;;;;;5034334;28;20119;-63
2023/04/12 03:54:40;;;;;;;11.30;2.72;;;8.10;99.90;;;;;;5035192;28;20130;-62
2023/04/12 03:57:06;;;;;;;5.22;2.13;;;8.10;99.90;;;;;;5035200;28;20044;-63
2023/04/12 03:59:32;;;;;;;7.10;2.97;;;8.10;99.90;;;;;;5051965;28;20048;-62
2023/04/12 04:02:01;;;;;;;7.65;2.72;;;8.10;99.90;;;;;;5035553;28;20041;-62
2023/04/12 04:04:27;;;;;;;8.63;3.22;;;8.10;99.90;;;;;;5035349;28;20045;-62
2023/04/12 04:06:53;;;;;;;8.75;2.78;;;8.10;99.90;;;;;;5051693;28;20402;-63
2023/04/12 04:09:19;;;;;;;7.65;2.80;;;8.00;99.90;;;;;;5052382;28;20037;-62
2023/04/12 04:11:49;;;;;;;5.65;2.55;;;8.00;99.90;;;;;;5035259;28;20025;-63
2023/04/12 04:14:15;;;;;;;7.40;2.35;;;8.00;99.90;;;;;;5018015;28;20076;-63
2023/04/12 04:16:40;;;;;;;9.43;2.58;;;8.00;99.90;;;;;;5035184;28;20434;-62
2023/04/12 04:19:06;;;;;;;6.57;2.35;;;8.00;99.90;;;;;;5052818;28;20090;-63
2023/04/12 04:21:32;;;;;;;8.13;2.50;;;8.00;99.90;;;;;;5034099;28;20091;-63
2023/04/12 04:24:01;;;;;;;6.53;2.53;;;8.00;99.90;;;;;;5052893;28;20033;-62
2023/04/12 04:26:32;;;;;;;9.30;2.83;;;8.00;99.90;;;;;;5052222;28;20033;-62
2023/04/12 04:29:02;;;;;;;5.60;2.40;;;7.90;99.90;;;;;;5017293;28;20048;-62
2023/04/12 04:31:35;;;;;;;6.03;2.30;;;8.00;99.90;;;;;;5034114;28;20512;-62
2023/04/12 04:34:02;;;;;;;4.75;2.20;;;7.90;99.90;;;;;;5051853;28;20239;-62
2023/04/12 04:36:28;;;;;;;6.22;2.80;;;7.90;99.90;;;;;;5017788;28;20076;-62
2023/04/12 04:38:56;;;;;;;8.95;2.33;;;7.90;99.90;;;;;;5034549;28;20047;-62
2023/04/12 04:41:23;;;;;;;8.63;2.67;;;7.90;99.90;;;;;;5016736;28;20044;-62
2023/04/12 04:43:49;;;;;;;6.82;2.28;;;7.90;99.90;;;;;;5034568;28;20052;-61
2023/04/12 04:46:16;;;;;;;6.80;2.28;;;7.90;99.90;;;;;;5017981;28;20037;-61
2023/04/12 04:48:42;;;;;;;6.93;2.55;;;7.90;99.90;;;;;;5033489;28;20044;-61
2023/04/12 04:51:07;;;;;;;6.78;2.67;;;7.90;99.90;;;;;;5034647;28;20143;-61
2023/04/12 04:53:33;;;;;;;5.55;2.30;;;7.90;99.90;;;;;;5034152;28;20112;-61
2023/04/12 04:56:00;;;;;;;6.53;2.65;;;7.90;99.90;;;;;;5051190;28;20041;-62
2023/04/12 04:58:26;;;;;;;5.22;2.60;;;7.90;99.90;;;;;;5033863;28;20465;-62
2023/04/12 05:00:56;;;;;;;5.78;2.58;;;7.90;99.90;;;;;;5052440;28;20078;-61
2023/04/12 05:03:22;;;;;;;5.53;2.38;;;7.80;99.90;;;;;;5050798;28;20540;-62
2023/04/12 05:05:51;;;;;;;9.35;2.40;;;7.90;99.90;;;;;;5017919;28;20490;-61
2023/04/12 05:08:16;;;;;;;7.03;2.60;;;7.80;99.90;;;;;;5051158;28;20091;-62
2023/04/12 05:10:43;;;;;;;6.90;3.05;;;7.80;99.90;;;;;;5032665;28;20037;-63
2023/04/12 05:13:09;;;;;;;10.70;3.15;;;7.80;99.90;;;;;;5052187;28;20079;-62
2023/04/12 05:15:34;;;;;;;8.98;3.40;;;7.80;99.90;;;;;;5017276;28;20080;-62
2023/04/12 05:18:01;;;;;;;10.15;3.25;;;7.80;99.90;;;;;;5033117;28;20433;-62
2023/04/12 05:20:26;;;;;;;7.82;3.30;;;7.80;99.90;;;;;;5017199;28;20047;-62
2023/04/12 05:22:52;;;;;;;6.20;3.30;;;7.80;99.90;;;;;;5034031;28;20041;-62
2023/04/12 05:25:19;;;;;;;8.82;3.83;;;7.80;99.90;;;;;;5050598;28;20049;-62
2023/04/12 05:27:46;;;;;;;9.00;4.05;;;7.80;99.90;;;;;;5027581;28;20033;-62
2023/04/12 05:30:12;;;;;;;9.32;5.15;;;7.70;99.90;;;;;;5031678;28;20045;-62
2023/04/12 05:32:37;;;;;;;10.27;5.35;;;7.70;99.90;;;;;;5017519;28;20040;-62
2023/04/12 05:35:04;;;;;;;9.70;5.43;;;7.70;99.90;;;;;;5034467;28;20534;-62
2023/04/12 05:37:30;;;;;;;8.98;5.22;;;7.80;99.90;;;;;;5032230;28;20033;-62
2023/04/12 05:39:56;;;;;;;16.40;7.25;;;7.80;99.90;;;;;;5051744;28;20029;-62
2023/04/12 05:42:21;;;;;;;10.60;6.00;;;7.80;99.90;;;;;;5033254;28;20482;-62
2023/04/12 05:44:48;;;;;;;10.88;6.72;;;7.80;99.90;;;;;;5018686;28;20062;-62
2023/04/12 05:47:14;;;;;;;13.07;7.80;;;7.70;99.90;;;;;;5020516;28;20037;-62
2023/04/12 05:49:40;;;;;;;11.55;7.15;;;7.70;99.90;;;;;;5035501;28;20042;-62
2023/04/12 05:52:05;;;;;;;12.77;7.60;;;7.80;99.90;;;;;;5016950;28;20112;-61
2023/04/12 05:54:31;;;;;;;12.98;8.07;;;7.70;99.90;;;;;;5055140;28;20437;-62
2023/04/12 05:56:57;;;;;;;14.10;8.45;;;7.70;99.90;;;;;;5037918;28;20123;-62
2023/04/12 05:59:22;;;;;;;13.45;7.85;;;7.70;99.90;;;;;;5053955;28;20047;-62
2023/04/12 06:01:49;;;;;;;13.38;8.32;;;7.70;99.90;;;;;;5037627;28;20033;-62
2023/04/12 06:04:15;;;;;;;17.13;9.40;;;7.70;99.90;;;;;;5053507;28;20486;-62
2023/04/12 06:06:42;;;;;;;13.73;9.27;;;7.70;99.90;;;;;;5036862;28;20436;-62
2023/04/12 06:09:08;;;;;;;11.32;7.78;;;7.80;99.90;;;;;;5055420;28;20045;-62
2023/04/12 06:11:34;;;;;;;13.82;9.00;;;7.70;99.90;;;;;;5036961;28;20037;-62
2023/04/12 06:14:00;;;;;;;14.02;9.65;;;7.70;99.90;;;;;;5033565;28;20049;-62
2023/04/12 06:16:26;;;;;;;10.77;7.88;;;7.80;99.90;;;;;;5034938;28;20033;-62
2023/04/12 06:18:52;;;;;;;12.88;7.72;;;7.80;99.90;;;;;;5017801;28;20037;-62
2023/04/12 06:21:18;;;;;;;9.85;7.95;;;7.80;99.90;;;;;;5016506;28;20555;-62
2023/04/12 06:23:44;;;;;;;8.45;6.45;;;7.80;99.90;;;;;;5017564;28;20120;-62
2023/04/12 06:26:10;;;;;;;12.95;7.93;;;7.80;99.90;;;;;;5035446;28;20545;-62
2023/04/12 06:28:36;;;;;;;12.02;9.18;;;7.80;99.90;;;;;;5016427;28;20045;-62
2023/04/12 06:31:02;;;;;;;12.23;7.22;;;7.80;99.90;;;;;;5017594;28;20509;-62
2023/04/12 06:33:27;;;;;;;12.07;9.02;;;7.80;99.90;;;;;;5015955;28;20041;-62
2023/04/12 06:35:53;;;;;;;10.10;7.25;;;7.80;99.90;;;;;;5034285;28;20068;-62
2023/04/12 06:38:19;;;;;;;13.27;7.95;;;7.80;99.90;;;;;;5036636;28;20037;-62
2023/04/12 06:40:44;;;;;;;12.77;7.18;;;7.80;99.90;;;;;;5036462;28;20086;-62
2023/04/12 06:43:11;;;;;;;9.90;6.80;;;7.80;99.90;;;;;;5020656;28;20390;-62
2023/04/12 06:45:37;;;;;;;9.68;7.25;;;7.80;99.90;;;;;;5053861;28;20052;-62
2023/04/12 06:48:02;;;;;;;12.07;7.75;;;7.90;99.90;;;;;;5036094;28;20084;-62
2023/04/12 06:50:28;;;;;;;10.18;7.47;;;7.80;99.90;;;;;;5036494;28;20044;-62
2023/04/12 06:52:54;;;;;;;13.50;6.72;;;7.80;99.90;;;;;;5036911;28;20047;-62
2023/04/12 06:55:20;;;;;;;13.45;7.30;;;7.90;99.90;;;;;;5034944;28;20048;-62
2023/04/12 06:57:46;;;;;;;11.77;6.88;;;7.90;99.90;;;;;;5054688;28;20041;-62
2023/04/12 07:00:12;;;;;;;12.95;6.93;;;7.90;99.90;;;;;;5036777;28;20374;-62
2023/04/12 07:02:38;;;;;;;10.23;7.68;;;7.90;99.90;;;;;;5051318;28;20055;-62
2023/04/12 07:05:04;;;;;;;9.82;6.93;;;7.90;99.90;;;;;;5036367;28;20045;-62
2023/04/12 07:07:31;;;;;;;10.10;7.00;;;7.90;99.90;;;;;;5053962;28;20053;-62
2023/04/12 07:09:56;;;;;;;9.80;7.22;;;7.90;99.90;;;;;;5035630;28;20512;-62
2023/04/12 07:12:22;;;;;;;10.23;7.15;;;7.80;99.90;;;;;;5035019;28;20029;-62
2023/04/12 07:14:48;;;;;;;8.85;6.70;;;7.90;99.90;;;;;;5036561;28;20102;-62
2023/04/12 07:17:13;;;;;;;11.00;6.78;;;7.90;99.90;;;;;;5035621;28;20051;-62
2023/04/12 07:19:40;;;;;;;9.60;6.18;;;7.90;99.90;;;;;;5030050;28;20087;-62
2023/04/12 07:22:06;;;;;;;11.40;6.55;;;7.90;99.90;;;;;;5008608;28;20037;-62
2023/04/12 07:24:32;;;;;;;13.25;6.85;;;7.90;99.90;;;;;;5052456;28;20360;-62
2023/04/12 07:26:58;;;;;;;8.68;6.22;;;7.90;99.90;;;;;;5035822;28;20036;-62
2023/04/12 07:29:24;;;;;;;9.98;6.88;;;7.90;99.90;;;;;;5052645;28;20041;-62
2023/04/12 07:31:49;;;;;;;9.95;7.05;;;7.90;99.90;;;;;;5035501;28;20037;-62
2023/04/12 07:34:15;;;;;;;10.20;6.28;;;8.00;99.90;;;;;;5035588;28;20465;-62
2023/04/12 07:36:43;;;;;;;10.73;7.28;;;7.90;99.90;;;;;;5033573;28;20041;-62
2023/04/12 07:39:11;;;;;;;10.55;7.13;;;8.00;99.90;;;;;;5025332;28;20120;-62
2023/04/12 07:41:37;;;;;;;10.15;7.22;;;8.00;99.90;;;;;;4996365;28;20049;-62
2023/04/12 07:44:03;;;;;;;10.60;6.95;;;8.00;99.90;;;;;;5012358;28;20514;-62
2023/04/12 07:46:30;;;;;;;11.55;6.70;;;8.00;99.90;;;;;;4996218;28;20037;-62
2023/04/12 07:48:55;;;;;;;8.98;6.80;;;8.00;99.90;;;;;;5012957;28;20045;-63
2023/04/12 07:51:21;;;;;;;9.55;7.28;;;8.00;99.90;;;;;;5012827;28;20052;-62
2023/04/12 07:53:50;;;;;;;10.10;6.70;;;8.00;99.90;;;;;;5030850;28;20432;-62
2023/04/12 07:56:16;;;;;;;9.18;6.60;;;8.10;99.90;;;;;;5031676;28;20036;-62
2023/04/12 07:58:42;;;;;;;8.85;6.20;;;8.10;99.90;;;;;;5029262;28;20074;-62
2023/04/12 08:01:07;;;;;;;9.48;6.07;;;8.10;99.90;;;;;;5015766;28;20040;-62
2023/04/12 08:03:33;;;;;;;8.43;5.57;;;8.10;99.90;;;;;;5027708;28;20378;-62
2023/04/12 08:05:59;;;;;;;7.85;5.80;;;8.10;99.90;;;;;;5024612;28;20080;-62
2023/04/12 08:08:24;;;;;;;8.88;5.55;;;8.10;99.90;;;;;;5030999;28;20056;-62
2023/04/12 08:10:51;;;;;;;8.52;5.82;;;8.10;99.90;;;;;;5032432;28;20040;-62
2023/04/12 08:13:17;;;;;;;8.68;5.30;;;8.20;99.90;;;;;;5014998;28;20047;-62
2023/04/12 08:15:43;;;;;;;12.48;6.40;;;8.20;99.90;;;;;;5031676;28;20393;-62
2023/04/12 08:18:09;;;;;;;8.93;5.75;;;8.20;99.90;;;;;;5015185;28;20053;-62
2023/04/12 08:20:35;;;;;;;10.50;5.00;;;8.20;99.90;;;;;;5020076;28;20045;-62
2023/04/12 08:23:01;;;;;;;9.60;5.28;;;8.20;99.90;;;;;;5024482;28;20402;-63
2023/04/12 08:25:26;;;;;;;8.73;5.10;;;8.20;99.90;;;;;;5048128;28;20105;-62
2023/04/12 08:27:52;;;;;;;10.23;5.07;;;8.20;99.90;;;;;;5031554;28;20455;-62
2023/04/12 08:30:18;;;;;;;9.40;5.82;;;8.30;99.90;;;;;;5031745;28;20072;-62
2023/04/12 08:32:44;;;;;;;9.98;5.43;;;8.30;99.90;;;;;;5032088;28;20036;-62
2023/04/12 08:35:10;;;;;;;11.15;5.40;;;8.30;99.90;;;;;;5049929;28;20504;-62
2023/04/12 08:37:36;;;;;;;11.60;5.20;;;8.20;99.90;;;;;;5031629;28;20568;-62
2023/04/12 08:40:05;;;;;;;11.75;5.57;;;8.30;99.90;;;;;;5022946;28;20049;-62
2023/04/12 08:42:38;;;;;;;9.30;5.15;;;8.30;99.90;;;;;;5024470;28;20087;-62
2023/04/12 08:45:09;;;;;;;7.88;3.70;;;8.30;99.90;;;;;;5027610;28;20045;-62
2023/04/12 08:47:37;;;;;;;8.15;4.03;;;8.40;99.90;;;;;;5042324;28;20517;-62
2023/04/12 08:50:08;;;;;;;7.78;3.75;;;8.40;99.90;;;;;;5032020;28;20049;-62
2023/04/12 08:52:35;;;;;;;6.72;3.50;;;8.50;99.90;;;;;;5049009;28;20047;-62
2023/04/12 08:55:05;;;;;;;7.95;3.97;;;8.50;99.90;;;;;;5024281;28;20383;-62
2023/04/12 08:57:33;;;;;;;6.30;3.03;;;8.50;99.90;;;;;;5044004;28;20068;-62
2023/04/12 09:00:00;;;;;;;5.90;2.83;;;8.60;99.90;;;;;;5049714;28;20132;-62
2023/04/12 09:02:26;;;;;;;7.75;3.03;;;8.70;99.90;;;;;;5025150;28;20080;-62
2023/04/12 09:04:53;;;;;;;7.43;3.08;;;8.80;99.90;;;;;;5023557;28;20041;-62
2023/04/12 09:07:22;;;;;;;6.85;4.05;;;8.90;99.90;;;;;;5011571;28;20129;-62
2023/04/12 09:09:49;;;;;;;10.40;3.53;;;9.20;99.90;;;;;;5016331;28;20122;-63
2023/04/12 09:12:15;;;;;;;8.05;3.42;;;9.30;99.90;;;;;;5010623;28;20029;-62
2023/04/12 09:14:43;;;;;;;5.85;2.90;;;9.40;99.90;;;;;;5013973;28;20518;-63
2023/04/12 09:17:26;;;;;;;9.00;3.70;;;9.50;99.90;;;;;;5011304;28;20037;-63
2023/04/12 09:19:54;;;;;;;7.53;2.47;;;9.60;99.90;;;;;;5031572;28;20444;-63
2023/04/12 09:22:33;;;;;;;6.57;2.88;;;9.80;99.90;;;;;;5018736;28;20042;-63
2023/04/12 09:24:58;;;;;;;6.88;3.00;;;9.80;99.90;;;;;;5018296;28;20392;-63
2023/04/12 09:27:27;;;;;;;6.97;3.22;;;9.90;99.90;;;;;;4998955;28;20048;-62
2023/04/12 09:30:06;;;;;;;9.77;4.05;;;10.00;99.90;;;;;;5008874;28;20079;-62
2023/04/12 09:32:31;;;;;;;9.65;3.55;;;10.20;99.90;;;;;;5009392;28;20030;-62
2023/04/12 09:35:03;;;;;;;5.78;3.10;;;10.30;99.90;;;;;;4989859;28;20552;-62
2023/04/12 09:37:29;;;;;;;6.80;3.20;;;10.40;99.90;;;;;;5012734;28;20048;-62
2023/04/12 09:40:05;;;;;;;7.85;3.58;;;10.50;99.90;;;;;;4996534;28;20104;-63
2023/04/12 09:42:51;;;;;;;9.60;4.28;;;10.60;99.90;;;;;;5021626;28;20041;-63
2023/04/12 09:45:24;;;;;;;10.45;3.42;;;10.80;99.90;;;;;;5013226;28;20053;-63
2023/04/12 09:47:50;;;;;;;8.05;3.10;;;11.10;99.90;;;;;;5013605;28;20037;-63
2023/04/12 09:50:24;;;;;;;10.75;3.90;;;11.30;99.90;;;;;;4999025;28;20034;-63
2023/04/12 09:52:52;;;;;;;14.18;3.50;;;11.50;99.90;;;;;;5024370;28;20065;-63
2023/04/12 09:55:20;;;;;;;5.38;2.88;;;11.60;99.90;;;;;;5013884;28;20034;-63
2023/04/12 09:57:50;;;;;;;9.60;3.33;;;11.60;99.90;;;;;;5031140;28;20042;-63
2023/04/12 10:00:17;;;;;;;11.32;3.10;;;11.50;99.90;;;;;;5031781;28;20120;-63
2023/04/12 10:02:45;;;;;;;9.85;3.00;;;11.40;99.90;;;;;;5004392;28;20462;-63
2023/04/12 10:05:12;;;;;;;12.52;3.10;;;11.40;99.90;;;;;;5026999;28;20046;-63
2023/04/12 10:07:41;;;;;;;7.60;2.95;;;11.40;99.90;;;;;;5029687;28;20052;-63
2023/04/12 10:10:08;;;;;;;9.48;3.45;;;11.40;99.90;;;;;;5051940;28;20068;-63
2023/04/12 10:12:42;;;;;;;9.52;2.95;;;11.50;99.90;;;;;;5032178;28;20037;-63
2023/04/12 10:15:12;;;;;;;13.00;4.20;;;11.60;99.90;;;;;;4997778;28;20486;-63
2023/04/12 10:17:44;;;;;;;11.57;2.97;;;11.60;99.90;;;;;;5040212;28;20046;-63
2023/04/12 10:20:10;;;;;;;10.68;3.00;;;11.60;99.90;;;;;;5028542;28;20041;-63
2023/04/12 10:22:47;;;;;;;14.60;3.47;;;11.50;99.90;;;;;;5032371;28;20041;-63
2023/04/12 10:25:16;;;;;;;11.98;3.38;;;11.50;99.90;;;;;;5016041;28;20095;-63
2023/04/12 10:27:43;;;;;;;13.35;2.72;;;11.60;99.90;;;;;;5049649;28;20059;-63
2023/04/12 10:30:29;;;;;;;12.45;2.67;;;11.70;99.90;;;;;;4998051;28;20048;-63
2023/04/12 10:33:04;;;;;;;14.30;2.70;;;11.70;99.90;;;;;;5013137;28;20381;-63
2023/04/12 10:35:46;;;;;;;11.43;3.55;;;11.70;99.90;;;;;;5035867;28;20072;-63
2023/04/12 10:38:12;;;;;;;9.95;3.20;;;11.70;99.90;;;;;;5031884;28;20072;-63
2023/04/12 10:41:17;;;;;;;16.17;3.13;;;11.60;99.90;;;;;;5031305;28;20061;-63
2023/04/12 10:43:50;;;;;;;10.80;3.57;;;11.60;99.90;;;;;;5051717;28;20531;-63
2023/04/12 10:46:42;;;;;;;15.65;4.07;;;11.50;99.90;;;;;;5054223;28;20790;-63
2023/04/12 10:49:09;;;;;;;16.00;3.53;;;11.50;99.90;;;;;;5032505;28;20049;-63
2023/04/12 10:51:35;;;;;;;13.57;3.60;;;11.50;99.90;;;;;;5054081;28;20072;-63
2023/04/12 10:54:07;;;;;;;13.23;3.15;;;11.50;99.90;;;;;;5035864;28;20087;-63
2023/04/12 10:56:41;;;;;;;10.32;2.55;;;11.70;99.90;;;;;;5054238;28;20555;-63
2023/04/12 10:59:15;;;;;;;15.48;3.25;;;11.80;99.90;;;;;;5031561;28;20040;-63
2023/04/12 11:02:01;;;;;;;14.63;3.10;;;11.90;99.90;;;;;;5018409;28;20051;-63
2023/04/12 11:04:36;;;;;;;13.93;3.33;;;12.10;99.90;;;;;;5019301;28;20045;-63
2023/04/12 11:07:11;;;;;;;;;;;12.10;99.90;;;;;;5037084;28;20086;-64
2023/04/12 11:09:40;;;;;;;10.27;3.28;;;12.00;99.90;;;;;;5035695;28;19916;-64
2023/04/12 11:12:05;;;;;;;11.98;2.47;;;12.00;99.90;;;;;;5014975;28;20112;-63
2023/04/12 11:14:35;;;;;;;8.18;2.92;;;11.90;99.90;;;;;;5019215;28;20124;-64
2023/04/12 11:17:07;;;;;;;11.02;2.45;;;12.00;99.90;;;;;;5011022;28;20037;-62
2023/04/12 11:19:33;;;;;;;11.00;3.33;;;12.00;99.90;;;;;;4999479;28;20049;-61
2023/04/12 11:22:08;;;;;;;10.35;2.63;;;12.10;99.90;;;;;;5039531;28;20838;-61
2023/04/12 11:24:38;;;;;;;13.05;2.33;;;12.10;99.90;;;;;;4999516;28;20041;-61
2023/04/12 11:27:04;;;;;;;13.27;3.22;;;12.00;99.90;;;;;;5022982;28;20083;-60
2023/04/12 11:29:33;;;;;;;9.50;2.70;;;12.10;99.90;;;;;;5052152;28;20033;-61
2023/04/12 11:32:02;;;;;;;11.07;2.47;;;12.10;99.90;;;;;;5019670;28;20052;-61
2023/04/12 11:34:35;;;;;;;9.45;2.60;;;12.10;99.90;;;;;;5053689;28;20463;-61
2023/04/12 11:37:09;;;;;;;10.45;2.40;;;12.00;99.90;;;;;;5047859;28;20112;-61
2023/04/12 11:39:42;;;;;;;14.93;3.35;;;11.90;99.90;;;;;;5036622;28;20099;-60
2023/04/12 11:42:20;;;;;;;16.20;3.75;;;12.00;99.90;;;;;;5022437;28;20041;-60
2023/04/12 11:44:47;;;;;;;11.45;3.05;;;12.00;99.90;;;;;;5029850;28;20038;-60
2023/04/12 11:47:20;;;;;;;10.45;3.40;;;12.20;99.90;;;;;;5050507;28;20413;-61
2023/04/12 11:49:52;;;;;;;10.55;3.17;;;12.30;99.90;;;;;;5046985;28;20429;-61
2023/04/12 11:52:18;;;;;;;12.07;3.10;;;12.60;99.90;;;;;;5023392;28;20041;-60
2023/04/12 11:54:46;;;;;;;13.45;3.75;;;12.80;99.90;;;;;;5051751;28;20120;-61
2023/04/12 11:57:17;;;;;;;10.15;2.50;;;12.80;99.90;;;;;;5035315;28;20044;-60
2023/04/12 11:59:44;;;;;;;11.27;3.33;;;12.70;99.90;;;;;;5032448;28;21541;-60
2023/04/12 12:02:11;;;;;;;10.38;2.88;;;12.50;99.90;;;;;;5035366;28;20041;-61
2023/04/12 12:04:39;;;;;;;11.02;3.10;;;12.40;99.90;;;;;;5033822;28;20132;-62
2023/04/12 12:07:06;;;;;;;11.20;3.47;;;12.30;99.90;;;;;;5026163;28;20089;-62
2023/04/12 12:09:31;;;;;;;11.10;3.03;;;12.20;99.90;;;;;;5016556;28;20371;-61
2023/04/12 12:11:58;;;;;;;11.25;3.28;;;12.30;99.90;;;;;;5015279;28;20148;-61
2023/04/12 12:53:14;;;;;;;10.18;2.50;;;13.30;99.90;;;;;;5659503;22;20495;-59
2023/04/12 12:55:40;;;;;;;7.45;1.98;;;13.30;99.90;;;;;;5014492;28;20053;-60
2023/04/12 12:58:06;;;;;;;7.80;2.30;;;13.00;99.90;;;;;;5015057;28;20072;-60
2023/04/12 13:00:32;;;;;;;7.38;1.80;;;13.00;99.90;;;;;;4997183;28;20471;-60
2023/04/12 13:02:57;;;;;;;7.97;2.15;;;13.10;99.90;;;;;;5032575;28;20037;-60
2023/04/12 13:05:23;;;;;;;6.63;1.73;;;13.30;99.90;;;;;;5031684;28;20250;-61
2023/04/12 13:07:49;;;;;;;11.30;2.10;;;13.40;99.90;;;;;;5031469;28;20048;-62
2023/04/12 13:10:14;;;;;;;7.80;1.70;;;13.50;99.90;;;;;;5014486;28;20041;-62
2023/04/12 13:12:40;;;;;;;8.50;2.22;;;13.70;99.90;;;;;;5014648;28;20045;-62
2023/04/12 13:15:06;;;;;;;6.22;1.95;;;13.90;99.90;;;;;;4997539;28;20483;-61
2023/04/12 13:17:32;;;;;;;6.95;1.60;;;14.10;99.90;;;;;;5014141;28;20048;-61
2023/04/12 13:19:58;;;;;;;8.48;2.58;;;14.00;99.90;;;;;;5032157;28;20034;-61
2023/04/12 13:22:24;;;;;;;7.38;2.03;;;14.10;99.90;;;;;;5030725;28;20049;-62
2023/04/12 13:24:50;;;;;;;7.38;1.73;;;14.20;99.90;;;;;;5014436;28;20483;-61
2023/04/12 13:27:16;;;;;;;6.15;2.17;;;13.90;99.90;;;;;;5031924;28;20037;-61
2023/04/12 13:29:42;;;;;;;5.72;1.80;;;13.60;99.80;;;;;;5013430;28;20474;-61
2023/04/12 13:32:08;;;;;;;5.47;1.92;;;13.50;99.90;;;;;;5014490;28;20038;-61
2023/04/12 13:34:34;;;;;;;7.68;2.22;;;13.70;99.90;;;;;;5031457;28;20052;-61